sensor_id;sensor_type;location;lat;lon;timestamp;P1;durP1;ratioP1;P2;durP2;ratioP2
31438;SDS011;18062;48.872;9.220;2022-08-23T00:01:01;367.10;;;347.33;;
31438;SDS011;18062;48.872;9.220;2022-08-23T00:03:29;373.40;;;353.57;;
31438;SDS011;18062;48.872;9.220;2022-08-23T00:05:55;384.17;;;363.83;;
31438;SDS011;18062;48.872;9.220;2022-08-23T00:08:21;365.00;;;345.87;;
31438;SDS011;18062;48.872;9.220;2022-08-23T00:10:48;393.53;;;371.70;;
31438;SDS011;18062;48.872;9.220;2022-08-23T00:13:14;410.37;;;388.73;;
31438;SDS011;18062;48.872;9.220;2022-08-23T00:15:41;388.77;;;368.13;;
31438;SDS011;18062;48.872;9.220;2022-08-23T00:18:07;393.70;;;372.03;;
31438;SDS011;18062;48.872;9.220;2022-08-23T00:20:33;412.87;;;391.17;;
31438;SDS011;18062;48.872;9.220;2022-08-23T00:22:59;389.13;;;368.50;;
31438;SDS011;18062;48.872;9.220;2022-08-23T00:25:25;405.87;;;384.97;;
31438;SDS011;18062;48.872;9.220;2022-08-23T00:27:51;400.20;;;378.73;;
31438;SDS011;18062;48.872;9.220;2022-08-23T00:30:20;389.97;;;369.00;;
31438;SDS011;18062;48.872;9.220;2022-08-23T00:32:46;427.90;;;404.73;;
31438;SDS011;18062;48.872;9.220;2022-08-23T00:35:12;411.50;;;389.70;;
31438;SDS011;18062;48.872;9.220;2022-08-23T00:37:39;369.30;;;349.47;;
31438;SDS011;18062;48.872;9.220;2022-08-23T00:40:06;426.47;;;404.00;;
31438;SDS011;18062;48.872;9.220;2022-08-23T00:45:30;441.03;;;417.47;;
31438;SDS011;18062;48.872;9.220;2022-08-23T00:48:16;481.40;;;456.03;;
31438;SDS011;18062;48.872;9.220;2022-08-23T00:50:44;449.50;;;425.50;;
31438;SDS011;18062;48.872;9.220;2022-08-23T00:53:16;452.17;;;428.60;;
31438;SDS011;18062;48.872;9.220;2022-08-23T00:55:43;447.17;;;423.70;;
31438;SDS011;18062;48.872;9.220;2022-08-23T00:58:10;449.67;;;425.53;;
31438;SDS011;18062;48.872;9.220;2022-08-23T01:00:37;476.93;;;450.27;;
31438;SDS011;18062;48.872;9.220;2022-08-23T01:03:05;440.90;;;417.40;;
31438;SDS011;18062;48.872;9.220;2022-08-23T01:05:35;475.30;;;450.00;;
31438;SDS011;18062;48.872;9.220;2022-08-23T01:08:06;453.00;;;427.97;;
31438;SDS011;18062;48.872;9.220;2022-08-23T01:10:39;481.93;;;456.27;;
31438;SDS011;18062;48.872;9.220;2022-08-23T01:13:08;488.50;;;462.63;;
31438;SDS011;18062;48.872;9.220;2022-08-23T01:15:37;456.47;;;431.80;;
31438;SDS011;18062;48.872;9.220;2022-08-23T01:18:06;493.50;;;467.17;;
31438;SDS011;18062;48.872;9.220;2022-08-23T01:20:38;488.10;;;460.57;;
31438;SDS011;18062;48.872;9.220;2022-08-23T01:23:15;468.47;;;444.37;;
31438;SDS011;18062;48.872;9.220;2022-08-23T01:25:41;462.63;;;437.53;;
31438;SDS011;18062;48.872;9.220;2022-08-23T01:28:07;460.90;;;435.23;;
31438;SDS011;18062;48.872;9.220;2022-08-23T01:30:33;417.57;;;395.03;;
31438;SDS011;18062;48.872;9.220;2022-08-23T01:33:01;429.67;;;406.87;;
31438;SDS011;18062;48.872;9.220;2022-08-23T01:35:38;424.10;;;401.40;;
31438;SDS011;18062;48.872;9.220;2022-08-23T01:38:05;459.10;;;434.77;;
31438;SDS011;18062;48.872;9.220;2022-08-23T01:40:32;451.87;;;428.77;;
31438;SDS011;18062;48.872;9.220;2022-08-23T01:42:58;433.27;;;409.30;;
31438;SDS011;18062;48.872;9.220;2022-08-23T01:45:24;427.43;;;404.33;;
31438;SDS011;18062;48.872;9.220;2022-08-23T01:47:51;440.50;;;416.47;;
31438;SDS011;18062;48.872;9.220;2022-08-23T01:50:17;456.50;;;432.13;;
31438;SDS011;18062;48.872;9.220;2022-08-23T01:52:43;460.43;;;435.03;;
31438;SDS011;18062;48.872;9.220;2022-08-23T01:55:09;459.00;;;433.93;;
31438;SDS011;18062;48.872;9.220;2022-08-23T01:57:35;418.23;;;395.60;;
31438;SDS011;18062;48.872;9.220;2022-08-23T02:00:04;429.93;;;406.07;;
31438;SDS011;18062;48.872;9.220;2022-08-23T02:02:31;455.03;;;430.93;;
31438;SDS011;18062;48.872;9.220;2022-08-23T02:04:57;482.60;;;456.00;;
31438;SDS011;18062;48.872;9.220;2022-08-23T02:07:26;422.83;;;399.77;;
31438;SDS011;18062;48.872;9.220;2022-08-23T02:09:53;479.07;;;453.00;;
31438;SDS011;18062;48.872;9.220;2022-08-23T02:12:19;479.60;;;454.10;;
31438;SDS011;18062;48.872;9.220;2022-08-23T02:14:46;462.03;;;437.00;;
31438;SDS011;18062;48.872;9.220;2022-08-23T02:17:12;499.03;;;471.57;;
31438;SDS011;18062;48.872;9.220;2022-08-23T02:19:40;474.13;;;448.87;;
31438;SDS011;18062;48.872;9.220;2022-08-23T02:22:08;503.00;;;474.77;;
31438;SDS011;18062;48.872;9.220;2022-08-23T02:24:37;501.60;;;474.80;;
31438;SDS011;18062;48.872;9.220;2022-08-23T02:27:03;516.53;;;489.17;;
31438;SDS011;18062;48.872;9.220;2022-08-23T02:29:30;488.47;;;462.37;;
31438;SDS011;18062;48.872;9.220;2022-08-23T02:31:56;494.20;;;468.43;;
31438;SDS011;18062;48.872;9.220;2022-08-23T02:34:22;499.70;;;473.67;;
31438;SDS011;18062;48.872;9.220;2022-08-23T02:36:49;480.87;;;456.13;;
31438;SDS011;18062;48.872;9.220;2022-08-23T02:39:15;512.37;;;484.30;;
31438;SDS011;18062;48.872;9.220;2022-08-23T02:41:41;538.33;;;508.33;;
31438;SDS011;18062;48.872;9.220;2022-08-23T02:44:08;530.73;;;502.27;;
31438;SDS011;18062;48.872;9.220;2022-08-23T02:46:35;493.50;;;466.73;;
31438;SDS011;18062;48.872;9.220;2022-08-23T02:49:02;528.83;;;499.67;;
31438;SDS011;18062;48.872;9.220;2022-08-23T02:51:28;526.37;;;497.03;;
31438;SDS011;18062;48.872;9.220;2022-08-23T02:53:54;501.53;;;474.37;;
31438;SDS011;18062;48.872;9.220;2022-08-23T02:56:20;498.57;;;471.60;;
31438;SDS011;18062;48.872;9.220;2022-08-23T02:58:47;512.07;;;483.03;;
31438;SDS011;18062;48.872;9.220;2022-08-23T03:01:14;497.87;;;471.00;;
31438;SDS011;18062;48.872;9.220;2022-08-23T03:03:41;526.07;;;497.47;;
31438;SDS011;18062;48.872;9.220;2022-08-23T03:06:07;521.17;;;492.53;;
31438;SDS011;18062;48.872;9.220;2022-08-23T03:08:33;506.40;;;479.70;;
31438;SDS011;18062;48.872;9.220;2022-08-23T03:10:59;512.03;;;484.27;;
31438;SDS011;18062;48.872;9.220;2022-08-23T03:13:25;505.17;;;476.73;;
31438;SDS011;18062;48.872;9.220;2022-08-23T03:15:51;520.50;;;493.20;;
31438;SDS011;18062;48.872;9.220;2022-08-23T03:18:17;553.67;;;524.00;;
31438;SDS011;18062;48.872;9.220;2022-08-23T03:20:42;538.93;;;510.10;;
31438;SDS011;18062;48.872;9.220;2022-08-23T03:23:09;512.67;;;485.53;;
31438;SDS011;18062;48.872;9.220;2022-08-23T03:25:35;516.13;;;488.80;;
31438;SDS011;18062;48.872;9.220;2022-08-23T03:28:03;522.90;;;493.83;;
31438;SDS011;18062;48.872;9.220;2022-08-23T03:30:30;539.30;;;510.27;;
31438;SDS011;18062;48.872;9.220;2022-08-23T03:32:57;524.80;;;495.03;;
31438;SDS011;18062;48.872;9.220;2022-08-23T03:35:24;549.27;;;519.43;;
31438;SDS011;18062;48.872;9.220;2022-08-23T03:37:50;488.90;;;461.67;;
31438;SDS011;18062;48.872;9.220;2022-08-23T03:40:17;535.90;;;506.77;;
31438;SDS011;18062;48.872;9.220;2022-08-23T03:42:44;526.37;;;498.07;;
31438;SDS011;18062;48.872;9.220;2022-08-23T03:45:10;510.80;;;483.37;;
31438;SDS011;18062;48.872;9.220;2022-08-23T03:47:36;503.97;;;476.93;;
31438;SDS011;18062;48.872;9.220;2022-08-23T03:50:03;499.73;;;471.87;;
31438;SDS011;18062;48.872;9.220;2022-08-23T03:52:29;518.10;;;489.67;;
31438;SDS011;18062;48.872;9.220;2022-08-23T03:54:55;502.17;;;474.80;;
31438;SDS011;18062;48.872;9.220;2022-08-23T03:57:22;537.90;;;509.60;;
31438;SDS011;18062;48.872;9.220;2022-08-23T03:59:48;511.03;;;482.70;;
31438;SDS011;18062;48.872;9.220;2022-08-23T04:02:14;508.93;;;480.23;;
31438;SDS011;18062;48.872;9.220;2022-08-23T04:04:40;522.30;;;493.63;;
31438;SDS011;18062;48.872;9.220;2022-08-23T04:07:07;518.50;;;490.40;;
31438;SDS011;18062;48.872;9.220;2022-08-23T04:09:34;509.23;;;480.90;;
31438;SDS011;18062;48.872;9.220;2022-08-23T04:12:00;532.93;;;504.10;;
31438;SDS011;18062;48.872;9.220;2022-08-23T04:14:26;534.83;;;505.23;;
31438;SDS011;18062;48.872;9.220;2022-08-23T04:16:52;526.10;;;496.50;;
31438;SDS011;18062;48.872;9.220;2022-08-23T04:19:18;506.30;;;478.23;;
31438;SDS011;18062;48.872;9.220;2022-08-23T04:21:46;509.50;;;481.77;;
31438;SDS011;18062;48.872;9.220;2022-08-23T04:24:13;516.47;;;487.77;;
31438;SDS011;18062;48.872;9.220;2022-08-23T04:26:40;561.43;;;530.30;;
31438;SDS011;18062;48.872;9.220;2022-08-23T04:29:06;502.23;;;474.70;;
31438;SDS011;18062;48.872;9.220;2022-08-23T04:31:32;546.47;;;517.10;;
31438;SDS011;18062;48.872;9.220;2022-08-23T04:33:59;494.67;;;467.10;;
31438;SDS011;18062;48.872;9.220;2022-08-23T04:36:25;507.10;;;478.53;;
31438;SDS011;18062;48.872;9.220;2022-08-23T04:38:52;572.83;;;541.37;;
31438;SDS011;18062;48.872;9.220;2022-08-23T04:41:18;550.77;;;521.33;;
31438;SDS011;18062;48.872;9.220;2022-08-23T04:44:02;532.37;;;502.70;;
31438;SDS011;18062;48.872;9.220;2022-08-23T04:46:29;549.53;;;519.53;;
31438;SDS011;18062;48.872;9.220;2022-08-23T04:48:56;498.43;;;471.63;;
31438;SDS011;18062;48.872;9.220;2022-08-23T04:51:23;530.63;;;501.03;;
31438;SDS011;18062;48.872;9.220;2022-08-23T04:53:49;534.73;;;505.83;;
31438;SDS011;18062;48.872;9.220;2022-08-23T04:56:15;508.40;;;480.97;;
31438;SDS011;18062;48.872;9.220;2022-08-23T04:58:41;539.13;;;509.50;;
31438;SDS011;18062;48.872;9.220;2022-08-23T05:01:09;524.83;;;495.63;;
31438;SDS011;18062;48.872;9.220;2022-08-23T05:03:35;555.17;;;524.47;;
31438;SDS011;18062;48.872;9.220;2022-08-23T05:06:01;17.02;;;16.23;;
31438;SDS011;18062;48.872;9.220;2022-08-23T05:08:28;270.63;;;255.50;;
31438;SDS011;18062;48.872;9.220;2022-08-23T05:10:55;421.70;;;398.73;;
31438;SDS011;18062;48.872;9.220;2022-08-23T05:13:23;474.43;;;448.43;;
31438;SDS011;18062;48.872;9.220;2022-08-23T05:15:50;486.83;;;459.80;;
31438;SDS011;18062;48.872;9.220;2022-08-23T05:18:16;513.73;;;485.43;;
31438;SDS011;18062;48.872;9.220;2022-08-23T05:20:42;517.27;;;487.97;;
31438;SDS011;18062;48.872;9.220;2022-08-23T05:23:08;504.07;;;476.57;;
31438;SDS011;18062;48.872;9.220;2022-08-23T05:25:34;470.10;;;444.73;;
31438;SDS011;18062;48.872;9.220;2022-08-23T05:30:58;517.33;;;489.17;;
31438;SDS011;18062;48.872;9.220;2022-08-23T05:33:25;511.50;;;484.17;;
31438;SDS011;18062;48.872;9.220;2022-08-23T05:35:51;469.67;;;444.63;;
31438;SDS011;18062;48.872;9.220;2022-08-23T05:38:18;474.73;;;448.87;;
31438;SDS011;18062;48.872;9.220;2022-08-23T05:40:47;425.33;;;402.00;;
31438;SDS011;18062;48.872;9.220;2022-08-23T05:43:13;451.77;;;428.23;;
31438;SDS011;18062;48.872;9.220;2022-08-23T05:45:39;436.37;;;413.20;;
31438;SDS011;18062;48.872;9.220;2022-08-23T05:48:05;415.93;;;393.37;;
31438;SDS011;18062;48.872;9.220;2022-08-23T05:50:31;374.10;;;354.67;;
31438;SDS011;18062;48.872;9.220;2022-08-23T05:52:57;394.57;;;373.80;;
31438;SDS011;18062;48.872;9.220;2022-08-23T05:55:24;365.70;;;345.37;;
31438;SDS011;18062;48.872;9.220;2022-08-23T05:57:50;339.57;;;321.30;;
31438;SDS011;18062;48.872;9.220;2022-08-23T06:00:16;346.37;;;328.00;;
31438;SDS011;18062;48.872;9.220;2022-08-23T06:02:42;336.50;;;318.33;;
31438;SDS011;18062;48.872;9.220;2022-08-23T06:05:08;340.77;;;322.67;;
31438;SDS011;18062;48.872;9.220;2022-08-23T06:07:34;334.57;;;316.37;;
31438;SDS011;18062;48.872;9.220;2022-08-23T06:10:01;350.43;;;331.13;;
31438;SDS011;18062;48.872;9.220;2022-08-23T06:12:27;325.40;;;308.23;;
31438;SDS011;18062;48.872;9.220;2022-08-23T06:14:53;323.27;;;306.40;;
31438;SDS011;18062;48.872;9.220;2022-08-23T06:17:19;312.90;;;295.70;;
31438;SDS011;18062;48.872;9.220;2022-08-23T06:19:45;285.30;;;270.10;;
31438;SDS011;18062;48.872;9.220;2022-08-23T06:22:11;288.27;;;273.13;;
31438;SDS011;18062;48.872;9.220;2022-08-23T06:24:37;292.37;;;277.50;;
31438;SDS011;18062;48.872;9.220;2022-08-23T06:27:03;268.80;;;254.50;;
31438;SDS011;18062;48.872;9.220;2022-08-23T06:29:29;296.07;;;280.57;;
31438;SDS011;18062;48.872;9.220;2022-08-23T06:31:55;266.80;;;252.70;;
31438;SDS011;18062;48.872;9.220;2022-08-23T06:34:23;253.07;;;239.87;;
31438;SDS011;18062;48.872;9.220;2022-08-23T06:36:51;257.90;;;243.23;;
31438;SDS011;18062;48.872;9.220;2022-08-23T06:39:19;258.70;;;244.93;;
31438;SDS011;18062;48.872;9.220;2022-08-23T06:41:45;251.23;;;237.63;;
31438;SDS011;18062;48.872;9.220;2022-08-23T06:44:15;257.17;;;243.83;;
31438;SDS011;18062;48.872;9.220;2022-08-23T06:46:41;262.77;;;248.93;;
31438;SDS011;18062;48.872;9.220;2022-08-23T06:49:07;270.20;;;254.10;;
31438;SDS011;18062;48.872;9.220;2022-08-23T06:51:35;238.80;;;226.00;;
31438;SDS011;18062;48.872;9.220;2022-08-23T06:54:02;247.30;;;233.90;;
31438;SDS011;18062;48.872;9.220;2022-08-23T06:56:29;235.27;;;222.37;;
31438;SDS011;18062;48.872;9.220;2022-08-23T06:58:55;227.53;;;215.17;;
31438;SDS011;18062;48.872;9.220;2022-08-23T07:01:23;219.83;;;208.07;;
31438;SDS011;18062;48.872;9.220;2022-08-23T07:03:52;223.90;;;211.60;;
31438;SDS011;18062;48.872;9.220;2022-08-23T07:06:19;177.83;;;167.77;;
31438;SDS011;18062;48.872;9.220;2022-08-23T07:08:45;186.40;;;176.20;;
31438;SDS011;18062;48.872;9.220;2022-08-23T07:11:11;179.83;;;170.40;;
31438;SDS011;18062;48.872;9.220;2022-08-23T07:13:38;161.27;;;151.73;;
31438;SDS011;18062;48.872;9.220;2022-08-23T07:16:04;179.20;;;168.90;;
31438;SDS011;18062;48.872;9.220;2022-08-23T07:18:30;173.10;;;163.47;;
31438;SDS011;18062;48.872;9.220;2022-08-23T07:33:10;202.47;;;191.63;;
31438;SDS011;18062;48.872;9.220;2022-08-23T07:54:30;138.77;;;131.03;;
31438;SDS011;18062;48.872;9.220;2022-08-23T07:56:56;104.17;;;97.33;;
31438;SDS011;18062;48.872;9.220;2022-08-23T07:59:22;87.63;;;81.93;;
31438;SDS011;18062;48.872;9.220;2022-08-23T08:01:48;78.93;;;73.90;;
31438;SDS011;18062;48.872;9.220;2022-08-23T08:04:14;84.53;;;78.63;;
31438;SDS011;18062;48.872;9.220;2022-08-23T08:06:41;83.13;;;77.83;;
31438;SDS011;18062;48.872;9.220;2022-08-23T08:09:10;85.27;;;79.87;;
31438;SDS011;18062;48.872;9.220;2022-08-23T08:11:36;69.10;;;64.80;;
31438;SDS011;18062;48.872;9.220;2022-08-23T08:14:05;70.83;;;66.30;;
31438;SDS011;18062;48.872;9.220;2022-08-23T08:16:39;5.72;;;5.43;;
31438;SDS011;18062;48.872;9.220;2022-08-23T08:19:06;46.13;;;42.70;;
31438;SDS011;18062;48.872;9.220;2022-08-23T08:24:52;62.67;;;58.13;;
31438;SDS011;18062;48.872;9.220;2022-08-23T08:27:17;60.77;;;56.33;;
31438;SDS011;18062;48.872;9.220;2022-08-23T08:29:44;61.93;;;58.03;;
31438;SDS011;18062;48.872;9.220;2022-08-23T08:41:24;46.22;;;43.35;;
31438;SDS011;18062;48.872;9.220;2022-08-23T08:44:02;36.85;;;34.20;;
31438;SDS011;18062;48.872;9.220;2022-08-23T08:46:38;38.53;;;35.90;;
31438;SDS011;18062;48.872;9.220;2022-08-23T08:54:13;23.80;;;22.50;;
31438;SDS011;18062;48.872;9.220;2022-08-23T08:56:41;22.60;;;21.42;;
31438;SDS011;18062;48.872;9.220;2022-08-23T08:59:11;26.88;;;25.42;;
31438;SDS011;18062;48.872;9.220;2022-08-23T09:01:39;30.55;;;28.90;;
31438;SDS011;18062;48.872;9.220;2022-08-23T09:04:05;35.85;;;33.90;;
31438;SDS011;18062;48.872;9.220;2022-08-23T09:06:40;32.47;;;30.80;;
31438;SDS011;18062;48.872;9.220;2022-08-23T09:09:25;40.80;;;38.85;;
31438;SDS011;18062;48.872;9.220;2022-08-23T09:11:57;53.88;;;50.95;;
31438;SDS011;18062;48.872;9.220;2022-08-23T09:17:31;69.13;;;65.55;;
31438;SDS011;18062;48.872;9.220;2022-08-23T09:20:00;66.07;;;62.42;;
31438;SDS011;18062;48.872;9.220;2022-08-23T09:22:34;73.32;;;69.13;;
31438;SDS011;18062;48.872;9.220;2022-08-23T09:25:01;104.57;;;98.55;;
31438;SDS011;18062;48.872;9.220;2022-08-23T09:27:27;102.68;;;95.82;;
31438;SDS011;18062;48.872;9.220;2022-08-23T09:29:58;89.75;;;84.32;;
31438;SDS011;18062;48.872;9.220;2022-08-23T09:32:29;151.82;;;142.75;;
31438;SDS011;18062;48.872;9.220;2022-08-23T09:37:48;224.35;;;209.40;;
31438;SDS011;18062;48.872;9.220;2022-08-23T09:42:41;175.05;;;163.63;;
31438;SDS011;18062;48.872;9.220;2022-08-23T09:45:24;308.58;;;284.45;;
31438;SDS011;18062;48.872;9.220;2022-08-23T09:47:51;424.95;;;389.88;;
31438;SDS011;18062;48.872;9.220;2022-08-23T09:52:46;303.70;;;280.02;;
31438;SDS011;18062;48.872;9.220;2022-08-23T09:55:26;325.10;;;299.38;;
31438;SDS011;18062;48.872;9.220;2022-08-23T09:57:52;398.85;;;367.23;;
31438;SDS011;18062;48.872;9.220;2022-08-23T10:00:30;558.22;;;510.92;;
31438;SDS011;18062;48.872;9.220;2022-08-23T10:05:42;425.85;;;388.90;;
31438;SDS011;18062;48.872;9.220;2022-08-23T10:08:14;660.95;;;604.00;;
31438;SDS011;18062;48.872;9.220;2022-08-23T10:10:47;785.50;;;713.63;;
31438;SDS011;18062;48.872;9.220;2022-08-23T10:13:15;890.35;;;801.22;;
31438;SDS011;18062;48.872;9.220;2022-08-23T10:20:53;224.65;;;207.07;;
31438;SDS011;18062;48.872;9.220;2022-08-23T10:26:06;798.28;;;716.97;;
31438;SDS011;18062;48.872;9.220;2022-08-23T10:31:48;893.17;;;797.35;;
31438;SDS011;18062;48.872;9.220;2022-08-23T10:34:26;1443.88;;;994.50;;
31438;SDS011;18062;48.872;9.220;2022-08-23T10:42:06;1580.32;;;999.90;;
31438;SDS011;18062;48.872;9.220;2022-08-23T10:49:52;1999.90;;;999.90;;
31438;SDS011;18062;48.872;9.220;2022-08-23T10:52:29;1966.40;;;999.90;;
31438;SDS011;18062;48.872;9.220;2022-08-23T10:57:37;1999.90;;;999.90;;
31438;SDS011;18062;48.872;9.220;2022-08-23T11:00:09;1999.90;;;999.90;;
31438;SDS011;18062;48.872;9.220;2022-08-23T11:05:22;1999.90;;;999.90;;
31438;SDS011;18062;48.872;9.220;2022-08-23T11:13:00;1999.90;;;999.90;;
31438;SDS011;18062;48.872;9.220;2022-08-23T11:17:58;1999.90;;;999.90;;
31438;SDS011;18062;48.872;9.220;2022-08-23T11:23:13;1999.90;;;999.90;;
31438;SDS011;18062;48.872;9.220;2022-08-23T11:25:40;1999.90;;;999.90;;
31438;SDS011;18062;48.872;9.220;2022-08-23T11:30:48;1999.90;;;999.90;;
31438;SDS011;18062;48.872;9.220;2022-08-23T11:36:21;1999.90;;;999.90;;
31438;SDS011;18062;48.872;9.220;2022-08-23T11:41:24;1999.90;;;999.90;;
31438;SDS011;18062;48.872;9.220;2022-08-23T11:59:21;1999.90;;;999.90;;
31438;SDS011;18062;48.872;9.220;2022-08-23T12:01:53;1999.90;;;999.90;;
31438;SDS011;18062;48.872;9.220;2022-08-23T12:04:30;1999.90;;;999.90;;
31438;SDS011;18062;48.872;9.220;2022-08-23T12:06:57;1999.90;;;934.05;;
31438;SDS011;18062;48.872;9.220;2022-08-23T12:14:31;1999.90;;;836.75;;
31438;SDS011;18062;48.872;9.220;2022-08-23T12:19:39;1999.90;;;852.05;;
31438;SDS011;18062;48.872;9.220;2022-08-23T12:22:14;1999.90;;;797.38;;
31438;SDS011;18062;48.872;9.220;2022-08-23T12:24:42;1999.90;;;767.15;;
31438;SDS011;18062;48.872;9.220;2022-08-23T12:32:34;1999.90;;;699.50;;
31438;SDS011;18062;48.872;9.220;2022-08-23T12:40:30;1999.90;;;533.33;;
31438;SDS011;18062;48.872;9.220;2022-08-23T12:45:43;1999.90;;;544.40;;
31438;SDS011;18062;48.872;9.220;2022-08-23T12:48:11;1999.90;;;565.88;;
31438;SDS011;18062;48.872;9.220;2022-08-23T12:50:42;1999.90;;;529.47;;
31438;SDS011;18062;48.872;9.220;2022-08-23T12:53:12;1947.45;;;517.72;;
31438;SDS011;18062;48.872;9.220;2022-08-23T12:55:41;1744.93;;;462.83;;
31438;SDS011;18062;48.872;9.220;2022-08-23T12:58:07;1896.15;;;488.63;;
31438;SDS011;18062;48.872;9.220;2022-08-23T13:00:50;1687.78;;;471.58;;
31438;SDS011;18062;48.872;9.220;2022-08-23T13:03:19;1999.90;;;520.42;;
31438;SDS011;18062;48.872;9.220;2022-08-23T13:05:54;1593.40;;;422.48;;
31438;SDS011;18062;48.872;9.220;2022-08-23T13:08:22;1436.70;;;403.45;;
31438;SDS011;18062;48.872;9.220;2022-08-23T13:10:49;1999.90;;;515.38;;
31438;SDS011;18062;48.872;9.220;2022-08-23T13:13:18;1261.13;;;398.95;;
31438;SDS011;18062;48.872;9.220;2022-08-23T13:15:49;1183.78;;;355.60;;
31438;SDS011;18062;48.872;9.220;2022-08-23T13:23:38;1148.25;;;336.30;;
31438;SDS011;18062;48.872;9.220;2022-08-23T13:29:02;1242.88;;;373.63;;
31438;SDS011;18062;48.872;9.220;2022-08-23T13:34:34;800.55;;;267.25;;
31438;SDS011;18062;48.872;9.220;2022-08-23T13:37:02;568.20;;;245.02;;
31438;SDS011;18062;48.872;9.220;2022-08-23T13:39:28;603.33;;;246.57;;
31438;SDS011;18062;48.872;9.220;2022-08-23T13:41:55;620.92;;;249.60;;
31438;SDS011;18062;48.872;9.220;2022-08-23T13:44:22;609.28;;;252.80;;
31438;SDS011;18062;48.872;9.220;2022-08-23T13:46:49;879.05;;;299.05;;
31438;SDS011;18062;48.872;9.220;2022-08-23T13:49:17;537.47;;;229.70;;
31438;SDS011;18062;48.872;9.220;2022-08-23T13:54:26;1999.90;;;721.35;;
31438;SDS011;18062;48.872;9.220;2022-08-23T13:56:53;1999.90;;;999.90;;
31438;SDS011;18062;48.872;9.220;2022-08-23T13:59:31;1999.90;;;999.90;;
31438;SDS011;18062;48.872;9.220;2022-08-23T14:01:58;1999.90;;;999.90;;
31438;SDS011;18062;48.872;9.220;2022-08-23T14:04:25;1611.28;;;999.90;;
31438;SDS011;18062;48.872;9.220;2022-08-23T14:06:51;1999.90;;;999.90;;
31438;SDS011;18062;48.872;9.220;2022-08-23T14:09:17;1999.90;;;999.90;;
31438;SDS011;18062;48.872;9.220;2022-08-23T14:11:44;1999.90;;;999.90;;
31438;SDS011;18062;48.872;9.220;2022-08-23T14:14:12;1999.90;;;999.90;;
31438;SDS011;18062;48.872;9.220;2022-08-23T14:16:38;1999.90;;;948.13;;
31438;SDS011;18062;48.872;9.220;2022-08-23T14:19:04;1999.90;;;999.90;;
31438;SDS011;18062;48.872;9.220;2022-08-23T14:21:31;1999.90;;;952.20;;
31438;SDS011;18062;48.872;9.220;2022-08-23T14:23:57;1999.90;;;960.40;;
31438;SDS011;18062;48.872;9.220;2022-08-23T14:26:23;1999.90;;;850.60;;
31438;SDS011;18062;48.872;9.220;2022-08-23T14:28:49;1999.90;;;705.80;;
31438;SDS011;18062;48.872;9.220;2022-08-23T14:31:16;1999.90;;;761.72;;
31438;SDS011;18062;48.872;9.220;2022-08-23T14:33:43;1999.90;;;696.50;;
31438;SDS011;18062;48.872;9.220;2022-08-23T14:36:10;1999.90;;;595.70;;
31438;SDS011;18062;48.872;9.220;2022-08-23T14:38:36;1922.68;;;533.53;;
31438;SDS011;18062;48.872;9.220;2022-08-23T14:41:05;1999.90;;;561.92;;
31438;SDS011;18062;48.872;9.220;2022-08-23T14:43:31;1997.90;;;520.10;;
31438;SDS011;18062;48.872;9.220;2022-08-23T14:45:57;1407.32;;;440.08;;
31438;SDS011;18062;48.872;9.220;2022-08-23T14:48:24;1999.90;;;661.10;;
31438;SDS011;18062;48.872;9.220;2022-08-23T14:50:51;1759.07;;;463.15;;
31438;SDS011;18062;48.872;9.220;2022-08-23T14:53:19;1264.50;;;381.63;;
31438;SDS011;18062;48.872;9.220;2022-08-23T14:55:46;1658.28;;;441.75;;
31438;SDS011;18062;48.872;9.220;2022-08-23T14:58:13;1894.45;;;482.70;;
31438;SDS011;18062;48.872;9.220;2022-08-23T15:00:39;1999.90;;;515.55;;
31438;SDS011;18062;48.872;9.220;2022-08-23T15:03:06;1477.07;;;401.00;;
31438;SDS011;18062;48.872;9.220;2022-08-23T15:05:35;1755.05;;;480.65;;
31438;SDS011;18062;48.872;9.220;2022-08-23T15:08:01;1448.43;;;421.13;;
31438;SDS011;18062;48.872;9.220;2022-08-23T15:10:27;1999.90;;;540.70;;
31438;SDS011;18062;48.872;9.220;2022-08-23T15:12:53;1989.50;;;527.70;;
31438;SDS011;18062;48.872;9.220;2022-08-23T15:15:19;1999.90;;;640.15;;
31438;SDS011;18062;48.872;9.220;2022-08-23T15:17:47;1999.90;;;613.50;;
31438;SDS011;18062;48.872;9.220;2022-08-23T15:20:15;1999.90;;;569.92;;
31438;SDS011;18062;48.872;9.220;2022-08-23T15:22:41;1901.53;;;522.13;;
31438;SDS011;18062;48.872;9.220;2022-08-23T15:25:07;1999.90;;;600.03;;
31438;SDS011;18062;48.872;9.220;2022-08-23T15:27:33;1999.90;;;655.17;;
31438;SDS011;18062;48.872;9.220;2022-08-23T15:29:59;1999.90;;;594.97;;
31438;SDS011;18062;48.872;9.220;2022-08-23T15:32:25;1999.90;;;598.13;;
31438;SDS011;18062;48.872;9.220;2022-08-23T15:34:51;1999.90;;;727.65;;
31438;SDS011;18062;48.872;9.220;2022-08-23T15:37:18;1999.90;;;594.58;;
31438;SDS011;18062;48.872;9.220;2022-08-23T15:39:45;1999.90;;;610.47;;
31438;SDS011;18062;48.872;9.220;2022-08-23T15:42:11;1999.90;;;719.78;;
31438;SDS011;18062;48.872;9.220;2022-08-23T15:44:37;1999.90;;;855.30;;
31438;SDS011;18062;48.872;9.220;2022-08-23T15:47:03;1999.90;;;982.67;;
31438;SDS011;18062;48.872;9.220;2022-08-23T15:49:30;1999.90;;;999.90;;
31438;SDS011;18062;48.872;9.220;2022-08-23T15:51:57;1999.90;;;999.90;;
31438;SDS011;18062;48.872;9.220;2022-08-23T15:54:23;1999.90;;;999.90;;
31438;SDS011;18062;48.872;9.220;2022-08-23T15:56:49;1999.90;;;999.90;;
31438;SDS011;18062;48.872;9.220;2022-08-23T15:59:17;1999.90;;;999.90;;
31438;SDS011;18062;48.872;9.220;2022-08-23T16:01:45;1351.78;;;998.58;;
31438;SDS011;18062;48.872;9.220;2022-08-23T16:04:11;989.40;;;880.95;;
31438;SDS011;18062;48.872;9.220;2022-08-23T16:06:37;840.63;;;760.45;;
31438;SDS011;18062;48.872;9.220;2022-08-23T16:09:04;898.75;;;815.35;;
31438;SDS011;18062;48.872;9.220;2022-08-23T16:11:31;853.92;;;774.97;;
31438;SDS011;18062;48.872;9.220;2022-08-23T16:13:57;880.45;;;800.40;;
31438;SDS011;18062;48.872;9.220;2022-08-23T16:16:27;1006.97;;;905.40;;
31438;SDS011;18062;48.872;9.220;2022-08-23T16:18:55;1021.85;;;915.28;;
31438;SDS011;18062;48.872;9.220;2022-08-23T16:21:22;1044.38;;;932.72;;
31438;SDS011;18062;48.872;9.220;2022-08-23T16:23:50;1095.10;;;961.42;;
31438;SDS011;18062;48.872;9.220;2022-08-23T16:26:18;1185.10;;;999.90;;
31438;SDS011;18062;48.872;9.220;2022-08-23T16:28:45;1011.08;;;904.70;;
31438;SDS011;18062;48.872;9.220;2022-08-23T16:31:11;1176.25;;;983.22;;
31438;SDS011;18062;48.872;9.220;2022-08-23T16:33:37;1004.88;;;898.72;;
31438;SDS011;18062;48.872;9.220;2022-08-23T16:36:04;900.00;;;815.55;;
31438;SDS011;18062;48.872;9.220;2022-08-23T16:38:30;689.50;;;628.05;;
31438;SDS011;18062;48.872;9.220;2022-08-23T16:40:56;527.78;;;482.25;;
31438;SDS011;18062;48.872;9.220;2022-08-23T16:43:22;319.77;;;294.40;;